sensor_id;sensor_type;location;lat;lon;timestamp;pressure;altitude;pressure_sealevel;temperature;humidity
18509;BME280;9383;50.928;12.116;2022-10-30T00:02:21;99232.34;;;14.49;100.00
18509;BME280;9383;50.928;12.116;2022-10-30T00:04:49;99235.53;;;14.58;100.00
18509;BME280;9383;50.928;12.116;2022-10-30T00:07:15;99230.94;;;14.61;100.00
18509;BME280;9383;50.928;12.116;2022-10-30T00:09:42;99233.50;;;14.63;100.00
18509;BME280;9383;50.928;12.116;2022-10-30T00:12:08;99228.25;;;14.61;99.81
18509;BME280;9383;50.928;12.116;2022-10-30T00:14:34;99225.59;;;14.61;99.58
18509;BME280;9383;50.928;12.116;2022-10-30T00:17:01;99233.66;;;14.60;99.20
18509;BME280;9383;50.928;12.116;2022-10-30T00:19:27;99233.00;;;14.55;98.77
18509;BME280;9383;50.928;12.116;2022-10-30T00:21:54;99226.84;;;14.53;98.78
18509;BME280;9383;50.928;12.116;2022-10-30T00:24:23;99222.41;;;14.53;99.73
18509;BME280;9383;50.928;12.116;2022-10-30T00:26:50;99223.13;;;14.57;99.86
18509;BME280;9383;50.928;12.116;2022-10-30T00:29:16;99220.31;;;14.60;99.76
18509;BME280;9383;50.928;12.116;2022-10-30T00:31:43;99220.38;;;14.58;99.38
18509;BME280;9383;50.928;12.116;2022-10-30T00:34:09;99215.19;;;14.55;98.92
18509;BME280;9383;50.928;12.116;2022-10-30T00:36:36;99214.47;;;14.52;98.48
18509;BME280;9383;50.928;12.116;2022-10-30T00:39:03;99212.88;;;14.47;98.37
18509;BME280;9383;50.928;12.116;2022-10-30T00:41:30;99218.38;;;14.44;98.26
18509;BME280;9383;50.928;12.116;2022-10-30T00:43:57;99215.03;;;14.39;98.06
18509;BME280;9383;50.928;12.116;2022-10-30T00:46:28;99210.00;;;14.33;97.74
18509;BME280;9383;50.928;12.116;2022-10-30T00:49:14;99212.00;;;14.28;97.69
18509;BME280;9383;50.928;12.116;2022-10-30T00:51:48;99202.50;;;14.22;97.62
18509;BME280;9383;50.928;12.116;2022-10-30T00:54:17;99198.22;;;14.18;97.72
18509;BME280;9383;50.928;12.116;2022-10-30T00:56:46;99193.09;;;14.13;97.64
18509;BME280;9383;50.928;12.116;2022-10-30T00:59:22;99204.78;;;14.11;97.91
18509;BME280;9383;50.928;12.116;2022-10-30T01:01:51;99191.53;;;14.09;98.19
18509;BME280;9383;50.928;12.116;2022-10-30T01:04:18;99185.41;;;14.07;98.36
18509;BME280;9383;50.928;12.116;2022-10-30T01:06:48;99183.69;;;14.06;98.31
18509;BME280;9383;50.928;12.116;2022-10-30T01:09:18;99173.06;;;14.04;98.51
18509;BME280;9383;50.928;12.116;2022-10-30T01:11:45;99173.00;;;14.06;99.26
18509;BME280;9383;50.928;12.116;2022-10-30T01:14:14;99182.66;;;14.09;100.00
18509;BME280;9383;50.928;12.116;2022-10-30T01:19:43;99180.72;;;14.12;100.00
18509;BME280;9383;50.928;12.116;2022-10-30T01:22:50;99183.31;;;14.14;100.00
18509;BME280;9383;50.928;12.116;2022-10-30T01:34:08;99176.41;;;14.29;100.00
18509;BME280;9383;50.928;12.116;2022-10-30T01:36:53;99177.63;;;14.41;100.00
18509;BME280;9383;50.928;12.116;2022-10-30T01:39:24;99179.16;;;14.46;100.00
18509;BME280;9383;50.928;12.116;2022-10-30T01:41:52;99171.78;;;14.52;100.00
18509;BME280;9383;50.928;12.116;2022-10-30T01:44:26;99169.94;;;14.54;99.85
18509;BME280;9383;50.928;12.116;2022-10-30T01:47:10;99175.16;;;14.55;99.47
18509;BME280;9383;50.928;12.116;2022-10-30T01:57:54;99156.22;;;14.61;97.87
18509;BME280;9383;50.928;12.116;2022-10-30T02:00:23;99163.34;;;14.61;97.53
18509;BME280;9383;50.928;12.116;2022-10-30T02:02:51;99157.06;;;14.62;97.36
18509;BME280;9383;50.928;12.116;2022-10-30T02:05:29;99155.34;;;14.61;97.19
18509;BME280;9383;50.928;12.116;2022-10-30T02:07:58;99149.16;;;14.60;97.07
18509;BME280;9383;50.928;12.116;2022-10-30T02:10:24;99150.88;;;14.61;96.76
18509;BME280;9383;50.928;12.116;2022-10-30T02:12:51;99150.94;;;14.60;96.70
18509;BME280;9383;50.928;12.116;2022-10-30T02:15:18;99151.81;;;14.60;96.59
18509;BME280;9383;50.928;12.116;2022-10-30T02:17:45;99149.16;;;14.60;96.41
18509;BME280;9383;50.928;12.116;2022-10-30T02:20:18;99150.94;;;14.60;96.48
18509;BME280;9383;50.928;12.116;2022-10-30T02:22:45;99147.41;;;14.59;96.56
18509;BME280;9383;50.928;12.116;2022-10-30T02:25:13;99146.50;;;14.60;96.39
18509;BME280;9383;50.928;12.116;2022-10-30T02:27:39;99138.47;;;14.60;96.33
18509;BME280;9383;50.928;12.116;2022-10-30T02:30:07;99133.16;;;14.60;96.17
18509;BME280;9383;50.928;12.116;2022-10-30T02:32:33;99140.22;;;14.61;96.11
18509;BME280;9383;50.928;12.116;2022-10-30T02:35:00;99136.66;;;14.61;95.90
18509;BME280;9383;50.928;12.116;2022-10-30T02:37:26;99135.88;;;14.59;95.67
18509;BME280;9383;50.928;12.116;2022-10-30T02:39:53;99136.03;;;14.56;95.62
18509;BME280;9383;50.928;12.116;2022-10-30T02:42:20;99141.44;;;14.54;95.62
18509;BME280;9383;50.928;12.116;2022-10-30T02:44:49;99136.03;;;14.56;95.77
18509;BME280;9383;50.928;12.116;2022-10-30T02:47:15;99128.97;;;14.55;95.64
18509;BME280;9383;50.928;12.116;2022-10-30T02:49:42;99137.75;;;14.57;95.73
18509;BME280;9383;50.928;12.116;2022-10-30T02:52:08;99135.94;;;14.57;95.72
18509;BME280;9383;50.928;12.116;2022-10-30T02:54:35;99135.00;;;14.58;95.59
18509;BME280;9383;50.928;12.116;2022-10-30T02:57:02;99127.00;;;14.58;95.50
18509;BME280;9383;50.928;12.116;2022-10-30T02:59:29;99122.47;;;14.60;95.42
18509;BME280;9383;50.928;12.116;2022-10-30T03:01:55;99123.31;;;14.61;95.11
18509;BME280;9383;50.928;12.116;2022-10-30T03:04:22;99136.59;;;14.62;95.08
18509;BME280;9383;50.928;12.116;2022-10-30T03:06:48;99123.25;;;14.62;94.81
18509;BME280;9383;50.928;12.116;2022-10-30T03:09:15;99131.09;;;14.66;94.78
18509;BME280;9383;50.928;12.116;2022-10-30T03:11:42;99124.91;;;14.65;94.62
18509;BME280;9383;50.928;12.116;2022-10-30T03:14:10;99123.88;;;14.68;94.58
18509;BME280;9383;50.928;12.116;2022-10-30T03:16:37;99123.81;;;14.69;94.30
18509;BME280;9383;50.928;12.116;2022-10-30T03:19:04;99122.00;;;14.70;94.37
18509;BME280;9383;50.928;12.116;2022-10-30T03:21:30;99119.28;;;14.71;94.43
18509;BME280;9383;50.928;12.116;2022-10-30T03:23:57;99124.59;;;14.71;94.42
18509;BME280;9383;50.928;12.116;2022-10-30T03:26:24;99123.69;;;14.72;94.31
18509;BME280;9383;50.928;12.116;2022-10-30T03:28:51;99124.59;;;14.71;94.13
18509;BME280;9383;50.928;12.116;2022-10-30T03:31:18;99118.38;;;14.71;94.22
18509;BME280;9383;50.928;12.116;2022-10-30T03:33:45;99116.66;;;14.70;94.24
18509;BME280;9383;50.928;12.116;2022-10-30T03:36:12;99118.50;;;14.69;94.24
18509;BME280;9383;50.928;12.116;2022-10-30T03:38:39;99124.75;;;14.68;93.85
18509;BME280;9383;50.928;12.116;2022-10-30T03:41:06;99129.28;;;14.66;93.97
18509;BME280;9383;50.928;12.116;2022-10-30T03:43:33;99119.66;;;14.63;94.06
18509;BME280;9383;50.928;12.116;2022-10-30T03:45:59;99118.88;;;14.61;93.82
18509;BME280;9383;50.928;12.116;2022-10-30T03:48:27;99124.41;;;14.57;93.76
18509;BME280;9383;50.928;12.116;2022-10-30T03:50:58;99118.31;;;14.55;93.57
18509;BME280;9383;50.928;12.116;2022-10-30T03:53:25;99116.78;;;14.49;93.33
18509;BME280;9383;50.928;12.116;2022-10-30T03:55:58;99115.13;;;14.46;93.37
18509;BME280;9383;50.928;12.116;2022-10-30T03:58:26;99111.84;;;14.41;93.37
18509;BME280;9383;50.928;12.116;2022-10-30T04:00:53;99109.38;;;14.37;93.43
18509;BME280;9383;50.928;12.116;2022-10-30T04:03:20;99112.28;;;14.32;93.35
18509;BME280;9383;50.928;12.116;2022-10-30T04:05:47;99116.00;;;14.28;93.39
18509;BME280;9383;50.928;12.116;2022-10-30T04:08:16;99113.56;;;14.23;93.38
18509;BME280;9383;50.928;12.116;2022-10-30T04:10:44;99104.91;;;14.18;93.53
18509;BME280;9383;50.928;12.116;2022-10-30T04:13:12;99106.94;;;14.13;93.40
18509;BME280;9383;50.928;12.116;2022-10-30T04:15:40;99110.75;;;14.07;93.35
18509;BME280;9383;50.928;12.116;2022-10-30T04:18:08;99108.31;;;14.02;93.28
18509;BME280;9383;50.928;12.116;2022-10-30T04:20:36;99118.31;;;13.97;93.31
18509;BME280;9383;50.928;12.116;2022-10-30T04:23:04;99114.16;;;13.91;93.41
18509;BME280;9383;50.928;12.116;2022-10-30T04:25:32;99109.97;;;13.86;93.57
18509;BME280;9383;50.928;12.116;2022-10-30T04:27:59;99109.28;;;13.81;93.71
18509;BME280;9383;50.928;12.116;2022-10-30T04:30:25;99108.66;;;13.75;93.76
18509;BME280;9383;50.928;12.116;2022-10-30T04:32:59;99106.19;;;13.71;93.85
18509;BME280;9383;50.928;12.116;2022-10-30T04:35:31;99105.59;;;13.64;94.02
18509;BME280;9383;50.928;12.116;2022-10-30T04:38:03;99113.78;;;13.59;94.27
18509;BME280;9383;50.928;12.116;2022-10-30T04:40:35;99103.44;;;13.53;94.36
18509;BME280;9383;50.928;12.116;2022-10-30T04:43:03;99107.13;;;13.49;94.37
18509;BME280;9383;50.928;12.116;2022-10-30T04:45:30;99106.41;;;13.45;94.75
18509;BME280;9383;50.928;12.116;2022-10-30T04:48:17;99103.94;;;13.41;95.15
18509;BME280;9383;50.928;12.116;2022-10-30T04:50:44;99094.34;;;13.36;95.21
18509;BME280;9383;50.928;12.116;2022-10-30T04:53:15;99099.81;;;13.33;95.64
18509;BME280;9383;50.928;12.116;2022-10-30T04:55:43;99098.13;;;13.31;95.97
18509;BME280;9383;50.928;12.116;2022-10-30T04:58:10;99097.44;;;13.27;96.52
18509;BME280;9383;50.928;12.116;2022-10-30T05:00:38;99101.91;;;13.25;96.64
18509;BME280;9383;50.928;12.116;2022-10-30T05:03:05;99092.34;;;13.21;96.94
18509;BME280;9383;50.928;12.116;2022-10-30T05:05:32;99096.09;;;13.17;96.98
18509;BME280;9383;50.928;12.116;2022-10-30T05:07:58;99098.00;;;13.13;97.10
18509;BME280;9383;50.928;12.116;2022-10-30T05:10:25;99097.28;;;13.09;97.57
18509;BME280;9383;50.928;12.116;2022-10-30T05:12:52;99100.06;;;13.06;97.57
18509;BME280;9383;50.928;12.116;2022-10-30T05:15:19;99100.22;;;13.03;97.74
18509;BME280;9383;50.928;12.116;2022-10-30T05:17:49;99089.66;;;13.00;97.87
18509;BME280;9383;50.928;12.116;2022-10-30T05:20:16;99095.19;;;12.95;97.93
18509;BME280;9383;50.928;12.116;2022-10-30T05:22:42;99097.06;;;12.93;98.35
18509;BME280;9383;50.928;12.116;2022-10-30T05:25:10;99106.06;;;12.91;98.42
18509;BME280;9383;50.928;12.116;2022-10-30T05:27:36;99108.75;;;12.89;98.75
18509;BME280;9383;50.928;12.116;2022-10-30T05:30:03;99109.75;;;12.87;98.79
18509;BME280;9383;50.928;12.116;2022-10-30T05:32:30;99115.19;;;12.84;98.88
18509;BME280;9383;50.928;12.116;2022-10-30T05:34:57;99117.06;;;12.82;99.19
18509;BME280;9383;50.928;12.116;2022-10-30T05:37:23;99113.59;;;12.79;99.27
18509;BME280;9383;50.928;12.116;2022-10-30T05:39:50;99117.19;;;12.78;99.49
18509;BME280;9383;50.928;12.116;2022-10-30T05:42:16;99103.06;;;12.76;99.70
18509;BME280;9383;50.928;12.116;2022-10-30T05:44:42;99109.41;;;12.74;99.83
18509;BME280;9383;50.928;12.116;2022-10-30T05:47:10;99097.97;;;12.72;99.98
18509;BME280;9383;50.928;12.116;2022-10-30T05:49:37;99106.00;;;12.70;99.98
18509;BME280;9383;50.928;12.116;2022-10-30T05:52:04;99113.19;;;12.68;100.00
18509;BME280;9383;50.928;12.116;2022-10-30T05:54:31;99112.31;;;12.68;100.00
18509;BME280;9383;50.928;12.116;2022-10-30T05:56:57;99108.00;;;12.65;100.00
18509;BME280;9383;50.928;12.116;2022-10-30T05:59:24;99127.47;;;12.65;100.00
18509;BME280;9383;50.928;12.116;2022-10-30T06:01:50;99126.63;;;12.65;100.00
18509;BME280;9383;50.928;12.116;2022-10-30T06:04:17;99123.06;;;12.64;100.00
18509;BME280;9383;50.928;12.116;2022-10-30T06:06:43;99122.19;;;12.64;100.00
18509;BME280;9383;50.928;12.116;2022-10-30T06:09:10;99127.50;;;12.64;100.00
18509;BME280;9383;50.928;12.116;2022-10-30T06:11:37;99121.41;;;12.62;100.00
18509;BME280;9383;50.928;12.116;2022-10-30T06:14:03;99127.59;;;12.62;100.00
18509;BME280;9383;50.928;12.116;2022-10-30T06:16:30;99132.91;;;12.62;100.00
18509;BME280;9383;50.928;12.116;2022-10-30T06:18:56;99140.91;;;12.62;100.00
18509;BME280;9383;50.928;12.116;2022-10-30T06:21:23;99139.09;;;12.63;100.00
18509;BME280;9383;50.928;12.116;2022-10-30T06:23:49;99135.56;;;12.62;100.00
18509;BME280;9383;50.928;12.116;2022-10-30T06:26:16;99135.50;;;12.64;100.00
18509;BME280;9383;50.928;12.116;2022-10-30T06:28:44;99143.47;;;12.64;100.00
18509;BME280;9383;50.928;12.116;2022-10-30T06:31:10;99146.97;;;12.66;100.00
18509;BME280;9383;50.928;12.116;2022-10-30T06:33:37;99143.38;;;12.67;100.00
18509;BME280;9383;50.928;12.116;2022-10-30T06:36:03;99147.75;;;12.68;100.00
18509;BME280;9383;50.928;12.116;2022-10-30T06:38:30;99148.56;;;12.70;100.00
18509;BME280;9383;50.928;12.116;2022-10-30T06:40:56;99153.81;;;12.72;100.00
18509;BME280;9383;50.928;12.116;2022-10-30T06:43:23;99149.34;;;12.72;100.00
18509;BME280;9383;50.928;12.116;2022-10-30T06:45:49;99147.50;;;12.74;100.00
18509;BME280;9383;50.928;12.116;2022-10-30T06:48:16;99158.94;;;12.76;100.00
18509;BME280;9383;50.928;12.116;2022-10-30T06:50:44;99159.75;;;12.78;100.00
18509;BME280;9383;50.928;12.116;2022-10-30T06:53:10;99157.91;;;12.80;100.00
18509;BME280;9383;50.928;12.116;2022-10-30T06:55:36;99158.69;;;12.83;100.00
18509;BME280;9383;50.928;12.116;2022-10-30T06:58:03;99158.50;;;12.87;100.00
18509;BME280;9383;50.928;12.116;2022-10-30T07:00:30;99173.50;;;12.90;100.00
18509;BME280;9383;50.928;12.116;2022-10-30T07:02:58;99162.72;;;12.93;100.00
18509;BME280;9383;50.928;12.116;2022-10-30T07:05:25;99163.53;;;12.95;100.00
18509;BME280;9383;50.928;12.116;2022-10-30T07:07:51;99166.03;;;12.98;100.00
18509;BME280;9383;50.928;12.116;2022-10-30T07:10:18;99162.34;;;13.02;100.00
18509;BME280;9383;50.928;12.116;2022-10-30T07:12:51;99164.88;;;13.05;100.00
18509;BME280;9383;50.928;12.116;2022-10-30T07:15:19;99172.72;;;13.08;100.00
18509;BME280;9383;50.928;12.116;2022-10-30T07:17:53;99169.88;;;13.13;100.00
18509;BME280;9383;50.928;12.116;2022-10-30T07:20:20;99167.06;;;13.16;100.00
18509;BME280;9383;50.928;12.116;2022-10-30T07:22:47;99174.88;;;13.21;100.00
18509;BME280;9383;50.928;12.116;2022-10-30T07:25:14;99169.50;;;13.22;100.00
18509;BME280;9383;50.928;12.116;2022-10-30T07:27:45;99172.03;;;13.26;100.00
18509;BME280;9383;50.928;12.116;2022-10-30T07:30:23;99170.94;;;13.30;100.00
18509;BME280;9383;50.928;12.116;2022-10-30T07:32:59;99165.44;;;13.34;100.00
18509;BME280;9383;50.928;12.116;2022-10-30T07:35:26;99171.41;;;13.40;100.00
18509;BME280;9383;50.928;12.116;2022-10-30T07:37:54;99173.81;;;13.47;100.00
18509;BME280;9383;50.928;12.116;2022-10-30T07:40:20;99170.88;;;13.54;100.00
18509;BME280;9383;50.928;12.116;2022-10-30T07:42:47;99174.13;;;13.60;100.00
18509;BME280;9383;50.928;12.116;2022-10-30T07:45:14;99168.53;;;13.67;100.00
18509;BME280;9383;50.928;12.116;2022-10-30T07:47:43;99170.91;;;13.73;100.00
18509;BME280;9383;50.928;12.116;2022-10-30T07:50:10;99174.91;;;13.83;100.00
18509;BME280;9383;50.928;12.116;2022-10-30T07:52:37;99169.16;;;13.92;100.00
18509;BME280;9383;50.928;12.116;2022-10-30T07:55:04;99167.88;;;14.01;100.00
18509;BME280;9383;50.928;12.116;2022-10-30T07:57:35;99176.31;;;14.11;100.00
18509;BME280;9383;50.928;12.116;2022-10-30T08:00:07;99176.75;;;14.21;100.00
18509;BME280;9383;50.928;12.116;2022-10-30T08:02:34;99179.94;;;14.29;100.00
18509;BME280;9383;50.928;12.116;2022-10-30T08:05:02;99171.50;;;14.39;100.00
18509;BME280;9383;50.928;12.116;2022-10-30T08:07:30;99174.66;;;14.47;100.00
18509;BME280;9383;50.928;12.116;2022-10-30T08:09:57;99169.84;;;14.55;100.00
18509;BME280;9383;50.928;12.116;2022-10-30T08:12:24;99172.84;;;14.67;100.00
18509;BME280;9383;50.928;12.116;2022-10-30T08:14:51;99175.03;;;14.77;100.00
18509;BME280;9383;50.928;12.116;2022-10-30T08:17:18;99178.97;;;14.88;100.00
18509;BME280;9383;50.928;12.116;2022-10-30T08:19:45;99177.66;;;14.97;100.00
18509;BME280;9383;50.928;12.116;2022-10-30T08:22:12;99179.97;;;15.04;100.00
18509;BME280;9383;50.928;12.116;2022-10-30T08:24:38;99183.09;;;15.13;100.00
18509;BME280;9383;50.928;12.116;2022-10-30T08:27:05;99183.44;;;15.24;100.00
18509;BME280;9383;50.928;12.116;2022-10-30T08:29:32;99184.72;;;15.35;100.00
18509;BME280;9383;50.928;12.116;2022-10-30T08:32:00;99185.97;;;15.45;100.00
18509;BME280;9383;50.928;12.116;2022-10-30T08:34:26;99181.00;;;15.55;100.00
18509;BME280;9383;50.928;12.116;2022-10-30T08:36:53;99184.06;;;15.65;100.00
18509;BME280;9383;50.928;12.116;2022-10-30T08:39:20;99185.13;;;15.78;100.00
18509;BME280;9383;50.928;12.116;2022-10-30T08:41:46;99194.19;;;15.93;100.00
18509;BME280;9383;50.928;12.116;2022-10-30T08:44:13;99189.06;;;16.06;100.00
18509;BME280;9383;50.928;12.116;2022-10-30T08:46:39;99182.00;;;16.21;100.00
18509;BME280;9383;50.928;12.116;2022-10-30T08:49:07;99183.06;;;16.35;100.00
18509;BME280;9383;50.928;12.116;2022-10-30T08:51:34;99186.88;;;16.47;100.00
18509;BME280;9383;50.928;12.116;2022-10-30T08:54:01;99178.25;;;16.57;100.00
18509;BME280;9383;50.928;12.116;2022-10-30T08:56:27;99175.84;;;16.69;100.00
18509;BME280;9383;50.928;12.116;2022-10-30T08:58:54;99177.88;;;16.80;100.00
18509;BME280;9383;50.928;12.116;2022-10-30T09:01:20;99175.38;;;16.93;100.00
18509;BME280;9383;50.928;12.116;2022-10-30T09:03:47;99172.03;;;17.05;100.00
18509;BME280;9383;50.928;12.116;2022-10-30T09:06:13;99170.44;;;17.17;100.00
18509;BME280;9383;50.928;12.116;2022-10-30T09:08:40;99173.34;;;17.28;100.00
18509;BME280;9383;50.928;12.116;2022-10-30T09:11:06;99167.38;;;17.39;100.00
18509;BME280;9383;50.928;12.116;2022-10-30T09:13:33;99166.72;;;17.50;100.00
18509;BME280;9383;50.928;12.116;2022-10-30T09:16:01;99168.56;;;17.64;100.00
18509;BME280;9383;50.928;12.116;2022-10-30T09:18:29;99173.06;;;17.78;100.00
18509;BME280;9383;50.928;12.116;2022-10-30T09:20:55;99166.19;;;17.89;96.60
18509;BME280;9383;50.928;12.116;2022-10-30T09:23:22;99170.88;;;17.99;94.20
18509;BME280;9383;50.928;12.116;2022-10-30T09:25:48;99169.19;;;18.13;91.49
18509;BME280;9383;50.928;12.116;2022-10-30T09:28:15;99173.13;;;18.22;85.25
18509;BME280;9383;50.928;12.116;2022-10-30T09:30:41;99176.00;;;18.33;81.35
18509;BME280;9383;50.928;12.116;2022-10-30T09:33:08;99169.72;;;18.47;81.95
18509;BME280;9383;50.928;12.116;2022-10-30T09:35:35;99168.84;;;18.61;80.94
18509;BME280;9383;50.928;12.116;2022-10-30T09:38:02;99165.16;;;18.77;81.32
18509;BME280;9383;50.928;12.116;2022-10-30T09:40:47;99167.59;;;18.94;82.06
18509;BME280;9383;50.928;12.116;2022-10-30T09:52:23;99186.16;;;19.52;77.52
18509;BME280;9383;50.928;12.116;2022-10-30T10:00:22;99179.34;;;20.00;75.92
18509;BME280;9383;50.928;12.116;2022-10-30T10:03:16;99172.88;;;20.16;75.83
18509;BME280;9383;50.928;12.116;2022-10-30T10:08:31;99165.81;;;20.52;75.27
18509;BME280;9383;50.928;12.116;2022-10-30T10:11:04;99168.44;;;20.65;74.04
18509;BME280;9383;50.928;12.116;2022-10-30T10:14:06;99170.81;;;20.83;73.02
18509;BME280;9383;50.928;12.116;2022-10-30T10:16:39;99159.75;;;20.99;72.75
18509;BME280;9383;50.928;12.116;2022-10-30T10:19:27;99167.13;;;21.08;70.09
18509;BME280;9383;50.928;12.116;2022-10-30T10:22:01;99172.06;;;21.14;67.39
18509;BME280;9383;50.928;12.116;2022-10-30T10:24:33;99160.94;;;21.19;67.05
18509;BME280;9383;50.928;12.116;2022-10-30T10:30:20;99161.88;;;21.42;69.42
18509;BME280;9383;50.928;12.116;2022-10-30T10:33:00;99156.75;;;21.50;66.63
18509;BME280;9383;50.928;12.116;2022-10-30T10:44:21;99158.44;;;21.87;66.93
18509;BME280;9383;50.928;12.116;2022-10-30T10:49:44;99148.66;;;22.09;66.94
18509;BME280;9383;50.928;12.116;2022-10-30T10:52:35;99140.19;;;22.14;63.09
18509;BME280;9383;50.928;12.116;2022-10-30T10:55:12;99142.50;;;22.18;64.04
18509;BME280;9383;50.928;12.116;2022-10-30T10:57:41;99139.94;;;22.28;65.19
18509;BME280;9383;50.928;12.116;2022-10-30T11:00:19;99139.19;;;22.38;65.16
18509;BME280;9383;50.928;12.116;2022-10-30T11:03:05;99134.50;;;22.40;63.74
18509;BME280;9383;50.928;12.116;2022-10-30T11:05:57;99129.84;;;22.42;62.62
18509;BME280;9383;50.928;12.116;2022-10-30T11:08:31;99126.88;;;22.45;62.98
18509;BME280;9383;50.928;12.116;2022-10-30T11:10:59;99126.16;;;22.43;61.72
18509;BME280;9383;50.928;12.116;2022-10-30T11:13:35;99127.13;;;22.42;61.95
18509;BME280;9383;50.928;12.116;2022-10-30T11:16:17;99124.81;;;22.48;62.89
18509;BME280;9383;50.928;12.116;2022-10-30T11:18:51;99123.31;;;22.56;63.16
18509;BME280;9383;50.928;12.116;2022-10-30T11:21:22;99123.56;;;22.64;63.83
18509;BME280;9383;50.928;12.116;2022-10-30T11:23:50;99119.75;;;22.67;62.49
18509;BME280;9383;50.928;12.116;2022-10-30T11:31:30;99114.72;;;22.95;63.91
18509;BME280;9383;50.928;12.116;2022-10-30T11:36:48;99116.63;;;23.15;63.94
18509;BME280;9383;50.928;12.116;2022-10-30T11:39:27;99119.31;;;23.27;63.38
18509;BME280;9383;50.928;12.116;2022-10-30T11:44:32;99117.44;;;23.49;64.20
18509;BME280;9383;50.928;12.116;2022-10-30T11:47:00;99112.09;;;23.58;62.97
18509;BME280;9383;50.928;12.116;2022-10-30T11:49:36;99106.59;;;23.70;63.29
18509;BME280;9383;50.928;12.116;2022-10-30T11:52:06;99100.38;;;23.79;62.33
18509;BME280;9383;50.928;12.116;2022-10-30T11:54:43;99098.84;;;23.86;60.66
18509;BME280;9383;50.928;12.116;2022-10-30T11:57:33;99094.47;;;23.95;61.13
18509;BME280;9383;50.928;12.116;2022-10-30T12:00:03;99095.06;;;23.99;57.74
18509;BME280;9383;50.928;12.116;2022-10-30T12:02:40;99096.41;;;24.05;57.95
18509;BME280;9383;50.928;12.116;2022-10-30T12:05:30;99092.28;;;24.10;56.93
18509;BME280;9383;50.928;12.116;2022-10-30T12:10:57;99095.72;;;24.22;56.66
18509;BME280;9383;50.928;12.116;2022-10-30T12:13:37;99090.63;;;24.29;56.42
18509;BME280;9383;50.928;12.116;2022-10-30T12:16:07;99089.34;;;24.33;55.55
18509;BME280;9383;50.928;12.116;2022-10-30T12:18:40;99085.22;;;24.39;56.27
18509;BME280;9383;50.928;12.116;2022-10-30T12:21:09;99084.97;;;24.42;55.24
18509;BME280;9383;50.928;12.116;2022-10-30T12:23:55;99086.38;;;24.46;56.03
18509;BME280;9383;50.928;12.116;2022-10-30T12:26:25;99080.41;;;24.52;56.73
18509;BME280;9383;50.928;12.116;2022-10-30T12:28:58;99080.13;;;24.55;55.28
18509;BME280;9383;50.928;12.116;2022-10-30T12:31:45;99072.59;;;24.59;54.99
18509;BME280;9383;50.928;12.116;2022-10-30T12:37:13;99074.28;;;24.70;55.26
18509;BME280;9383;50.928;12.116;2022-10-30T12:39:45;99071.28;;;24.73;54.61
18509;BME280;9383;50.928;12.116;2022-10-30T12:42:17;99076.41;;;24.76;55.67
18509;BME280;9383;50.928;12.116;2022-10-30T12:50:25;99070.44;;;24.72;53.25
18509;BME280;9383;50.928;12.116;2022-10-30T12:53:21;99066.34;;;24.78;54.47
18509;BME280;9383;50.928;12.116;2022-10-30T12:55:55;99065.34;;;24.79;53.47
18509;BME280;9383;50.928;12.116;2022-10-30T13:01:34;99062.63;;;24.79;53.00
18509;BME280;9383;50.928;12.116;2022-10-30T13:04:18;99059.31;;;24.76;50.50
18509;BME280;9383;50.928;12.116;2022-10-30T13:06:56;99060.44;;;24.73;51.34
18509;BME280;9383;50.928;12.116;2022-10-30T13:09:39;99060.03;;;24.68;50.96
18509;BME280;9383;50.928;12.116;2022-10-30T13:12:13;99058.31;;;24.67;51.50
18509;BME280;9383;50.928;12.116;2022-10-30T13:15:04;99055.59;;;24.67;52.43
18509;BME280;9383;50.928;12.116;2022-10-30T13:17:34;99061.88;;;24.67;51.65
18509;BME280;9383;50.928;12.116;2022-10-30T13:20:01;99054.03;;;24.64;51.29
18509;BME280;9383;50.928;12.116;2022-10-30T13:22:48;99048.75;;;24.63;51.62
18509;BME280;9383;50.928;12.116;2022-10-30T13:27:52;99049.31;;;24.56;51.04
18509;BME280;9383;50.928;12.116;2022-10-30T13:30:21;99045.91;;;24.54;51.22
18509;BME280;9383;50.928;12.116;2022-10-30T13:38:46;99045.44;;;24.49;52.65
18509;BME280;9383;50.928;12.116;2022-10-30T13:48:18;99046.16;;;24.41;51.76
18509;BME280;9383;50.928;12.116;2022-10-30T13:51:16;99041.31;;;24.35;51.02
18509;BME280;9383;50.928;12.116;2022-10-30T13:53:47;99045.44;;;24.29;51.18
18509;BME280;9383;50.928;12.116;2022-10-30T13:56:16;99038.84;;;24.22;51.48
18509;BME280;9383;50.928;12.116;2022-10-30T13:59:01;99048.09;;;24.20;52.00
18509;BME280;9383;50.928;12.116;2022-10-30T14:04:22;99047.81;;;24.13;53.37
18509;BME280;9383;50.928;12.116;2022-10-30T14:07:13;99049.09;;;24.09;53.79
18509;BME280;9383;50.928;12.116;2022-10-30T14:12:49;99045.44;;;23.98;54.78
18509;BME280;9383;50.928;12.116;2022-10-30T14:20:39;99042.94;;;23.75;55.82
18509;BME280;9383;50.928;12.116;2022-10-30T14:28:39;99049.13;;;23.56;57.09
18509;BME280;9383;50.928;12.116;2022-10-30T14:31:12;99049.56;;;23.52;57.14
18509;BME280;9383;50.928;12.116;2022-10-30T14:33:43;99040.97;;;23.46;57.74
18509;BME280;9383;50.928;12.116;2022-10-30T14:39:24;99046.72;;;23.32;58.98
18509;BME280;9383;50.928;12.116;2022-10-30T14:47:50;99050.78;;;23.05;60.66
18509;BME280;9383;50.928;12.116;2022-10-30T14:53:23;99055.03;;;22.86;61.06
18509;BME280;9383;50.928;12.116;2022-10-30T14:56:20;99053.38;;;22.74;61.72
18509;BME280;9383;50.928;12.116;2022-10-30T14:58:44;99055.16;;;22.64;62.27
18509;BME280;9383;50.928;12.116;2022-10-30T15:01:38;99054.22;;;22.53;62.66
18509;BME280;9383;50.928;12.116;2022-10-30T15:10:05;99052.78;;;22.15;64.11
18509;BME280;9383;50.928;12.116;2022-10-30T15:13:11;99050.72;;;21.96;64.54
18509;BME280;9383;50.928;12.116;2022-10-30T15:15:42;99047.16;;;21.84;64.68
18509;BME280;9383;50.928;12.116;2022-10-30T21:21:55;99229.63;;;11.61;87.52
18509;BME280;9383;50.928;12.116;2022-10-30T21:24:21;99235.03;;;11.58;88.12
18509;BME280;9383;50.928;12.116;2022-10-30T21:26:48;99239.53;;;11.56;88.11